createdAt,value
2022-08-29T00:02:11.743Z,45.72
2022-08-29T00:04:44.029Z,45.86
2022-08-29T00:07:16.857Z,46.13
2022-08-29T00:09:49.052Z,46.16
2022-08-29T00:12:21.292Z,46.29
2022-08-29T00:14:53.623Z,46.36
2022-08-29T00:17:25.944Z,46.58
2022-08-29T00:19:58.387Z,46.44
2022-08-29T00:22:31.338Z,46.72
2022-08-29T00:25:05.049Z,46.59
2022-08-29T00:27:37.576Z,46.84
2022-08-29T00:30:12.339Z,47.09
2022-08-29T00:32:44.687Z,46.76
2022-08-29T00:35:19.737Z,46.87
2022-08-29T00:37:52.324Z,46.88
2022-08-29T00:40:28.236Z,47.09
2022-08-29T00:43:00.524Z,47.46
2022-08-29T00:45:33.674Z,47.67
2022-08-29T00:48:11.439Z,47.62
2022-08-29T00:50:49.251Z,47.93
2022-08-29T00:53:31.511Z,47.70
2022-08-29T00:56:04.733Z,47.99
2022-08-29T00:58:42.239Z,48.01
2022-08-29T01:01:14.531Z,48.07
2022-08-29T01:03:47.542Z,47.93
2022-08-29T01:06:20.904Z,47.99
2022-08-29T01:08:57.280Z,47.99
2022-08-29T01:11:49.412Z,48.34
2022-08-29T01:14:23.568Z,48.55
2022-08-29T01:16:59.066Z,48.46
2022-08-29T01:19:54.353Z,48.22
2022-08-29T01:22:42.186Z,48.65
2022-08-29T01:25:19.626Z,48.78
2022-08-29T01:27:58.093Z,48.72
2022-08-29T01:30:30.490Z,48.67
2022-08-29T01:33:03.178Z,49.01
2022-08-29T01:35:36.711Z,48.95
2022-08-29T01:38:08.853Z,49.17
2022-08-29T01:40:41.094Z,49.44
2022-08-29T01:43:13.303Z,49.26
2022-08-29T01:45:45.843Z,49.39
2022-08-29T01:48:18.149Z,49.51
2022-08-29T01:50:50.375Z,49.30
2022-08-29T01:53:24.979Z,49.39
2022-08-29T01:55:57.122Z,49.49
2022-08-29T01:58:30.024Z,49.25
2022-08-29T02:01:02.220Z,49.36
2022-08-29T02:03:34.478Z,49.34
2022-08-29T02:06:09.736Z,49.38
2022-08-29T02:08:45.090Z,49.31
2022-08-29T02:11:18.064Z,49.21
2022-08-29T02:13:53.508Z,49.57
2022-08-29T02:16:24.091Z,49.60
2022-08-29T02:18:56.366Z,49.89
2022-08-29T02:21:30.407Z,49.72
2022-08-29T02:24:23.873Z,49.60
2022-08-29T02:26:58.535Z,49.62
2022-08-29T02:29:37.703Z,49.73
2022-08-29T02:32:14.564Z,49.75
2022-08-29T02:34:47.652Z,49.80
2022-08-29T02:37:20.886Z,49.96
2022-08-29T02:39:53.791Z,49.90
2022-08-29T02:42:26.132Z,49.92
2022-08-29T02:44:58.317Z,50.07
2022-08-29T02:47:30.495Z,50.03
2022-08-29T02:50:02.684Z,49.94
2022-08-29T02:52:37.285Z,50.03
2022-08-29T02:55:12.663Z,49.90
2022-08-29T02:57:45.461Z,50.11
2022-08-29T03:00:21.584Z,50.29
2022-08-29T03:02:55.368Z,50.25
2022-08-29T03:05:30.088Z,50.17
2022-08-29T03:08:03.251Z,50.27
2022-08-29T03:10:36.648Z,50.19
2022-08-29T03:13:08.922Z,50.33
2022-08-29T03:15:41.861Z,50.16
2022-08-29T03:18:14.902Z,50.19
2022-08-29T03:20:48.334Z,50.21
2022-08-29T03:23:21.914Z,50.35
2022-08-29T03:25:54.132Z,50.45
2022-08-29T03:28:26.458Z,50.53
2022-08-29T03:30:58.651Z,50.43
2022-08-29T03:33:31.135Z,50.56
2022-08-29T03:36:03.567Z,50.55
2022-08-29T03:38:40.022Z,50.65
2022-08-29T03:41:13.573Z,50.68
2022-08-29T03:43:45.774Z,50.76
2022-08-29T03:46:18.042Z,50.62
2022-08-29T03:48:50.343Z,50.81
2022-08-29T03:51:25.063Z,50.54
2022-08-29T03:54:02.227Z,50.81
2022-08-29T03:56:34.432Z,50.98
2022-08-29T03:59:06.794Z,50.81
2022-08-29T04:01:39.125Z,50.85
2022-08-29T04:04:31.639Z,50.76
2022-08-29T04:07:05.008Z,50.90
2022-08-29T04:09:37.587Z,50.69
2022-08-29T04:12:11.532Z,50.65
2022-08-29T04:14:44.313Z,50.61
2022-08-29T04:17:16.488Z,50.64
2022-08-29T04:19:49.340Z,50.40
2022-08-29T04:22:21.627Z,50.49
2022-08-29T04:24:53.881Z,50.40
2022-08-29T04:27:26.072Z,50.20
2022-08-29T04:29:58.242Z,50.33
2022-08-29T04:32:30.470Z,50.19
2022-08-29T04:35:02.703Z,50.32
2022-08-29T04:37:35.207Z,50.37
2022-08-29T04:40:09.172Z,50.15
2022-08-29T04:42:41.583Z,50.02
2022-08-29T04:45:18.009Z,50.04
2022-08-29T04:47:50.195Z,49.74
2022-08-29T04:50:24.939Z,49.83
2022-08-29T04:52:58.015Z,49.62
2022-08-29T04:55:31.394Z,49.78
2022-08-29T04:58:04.081Z,49.63
2022-08-29T05:00:36.476Z,49.51
2022-08-29T05:03:08.717Z,49.28
2022-08-29T05:05:41.190Z,49.10
2022-08-29T05:08:13.533Z,49.24
2022-08-29T05:10:49.159Z,48.90
2022-08-29T05:13:22.297Z,48.69
2022-08-29T05:15:54.618Z,48.90
2022-08-29T05:18:26.863Z,48.54
2022-08-29T05:20:59.117Z,48.52
2022-08-29T05:23:31.701Z,48.36
2022-08-29T05:26:05.548Z,48.15
2022-08-29T05:28:38.732Z,48.17
2022-08-29T05:31:13.815Z,47.78
2022-08-29T05:33:46.221Z,47.59
2022-08-29T05:36:18.957Z,47.49
2022-08-29T05:38:51.388Z,47.15
2022-08-29T05:41:23.572Z,46.79
2022-08-29T05:43:55.925Z,46.97
2022-08-29T05:46:28.166Z,46.71
2022-08-29T05:49:00.375Z,46.56
2022-08-29T05:51:37.433Z,46.62
2022-08-29T05:54:11.742Z,46.31
2022-08-29T05:56:44.273Z,46.32
2022-08-29T05:59:17.151Z,46.11
2022-08-29T06:01:49.382Z,45.88
2022-08-29T06:04:21.640Z,45.66
2022-08-29T06:06:53.802Z,45.44
2022-08-29T06:09:25.961Z,45.47
2022-08-29T06:11:58.929Z,45.20
2022-08-29T06:14:31.710Z,45.20
2022-08-29T06:17:04.858Z,44.88
2022-08-29T06:19:37.540Z,44.92
2022-08-29T06:22:11.510Z,44.65
2022-08-29T06:24:45.400Z,44.44
2022-08-29T06:27:19.436Z,44.14
2022-08-29T06:29:51.559Z,44.15
2022-08-29T06:32:23.740Z,43.79
2022-08-29T06:34:55.943Z,43.76
2022-08-29T06:37:28.152Z,43.42
2022-08-29T06:40:00.446Z,43.07
2022-08-29T06:42:32.670Z,42.69
2022-08-29T06:45:05.084Z,42.52
2022-08-29T06:47:37.235Z,42.02
2022-08-29T06:50:10.897Z,41.36
2022-08-29T06:52:43.097Z,41.40
2022-08-29T06:55:24.133Z,41.01
2022-08-29T06:57:56.942Z,40.75
2022-08-29T07:00:29.116Z,40.55
2022-08-29T07:03:01.728Z,40.32
2022-08-29T07:05:34.316Z,40.05
2022-08-29T07:08:06.927Z,39.94
2022-08-29T07:10:39.057Z,39.39
2022-08-29T07:13:11.286Z,38.98
2022-08-29T07:15:43.720Z,38.92
2022-08-29T07:18:16.070Z,38.42
2022-08-29T07:20:49.013Z,38.40
2022-08-29T07:23:21.300Z,38.15
2022-08-29T07:25:53.789Z,37.92
2022-08-29T07:28:25.919Z,37.66
2022-08-29T07:30:58.327Z,37.19
2022-08-29T07:33:31.444Z,37.10
2022-08-29T07:36:05.513Z,36.57
2022-08-29T07:38:38.497Z,36.35
2022-08-29T07:41:14.413Z,36.20
2022-08-29T07:43:46.803Z,35.90
2022-08-29T07:46:21.114Z,35.45
2022-08-29T07:48:53.875Z,34.99
2022-08-29T07:51:26.936Z,34.58
2022-08-29T07:53:59.875Z,34.43
2022-08-29T07:56:39.399Z,33.99
2022-08-29T07:59:11.619Z,33.93
2022-08-29T08:01:43.797Z,33.36
2022-08-29T08:04:16.324Z,33.00
2022-08-29T08:06:51.376Z,33.08
2022-08-29T08:09:23.586Z,32.51
2022-08-29T08:11:55.812Z,32.19
2022-08-29T08:14:35.180Z,32.14
2022-08-29T08:17:07.742Z,31.88
2022-08-29T08:19:40.208Z,31.55
2022-08-29T08:22:12.395Z,30.77
2022-08-29T08:24:45.080Z,30.76
2022-08-29T08:27:17.505Z,30.33
2022-08-29T08:29:49.663Z,30.04
2022-08-29T08:32:22.208Z,29.54
2022-08-29T08:34:54.433Z,29.44
2022-08-29T08:37:28.022Z,29.09
2022-08-29T08:40:01.289Z,28.75
2022-08-29T08:42:42.716Z,28.43
2022-08-29T08:45:16.662Z,28.18
2022-08-29T08:47:54.623Z,27.89
2022-08-29T08:50:36.020Z,27.63
2022-08-29T08:53:14.416Z,27.22
2022-08-29T08:55:50.016Z,26.91
2022-08-29T08:58:37.037Z,26.62
2022-08-29T09:01:26.712Z,26.49
2022-08-29T09:04:17.774Z,26.17
2022-08-29T09:07:16.506Z,26.03
2022-08-29T09:10:01.383Z,26.05
2022-08-29T09:12:46.232Z,25.88
2022-08-29T09:15:25.861Z,26.02
2022-08-29T09:18:02.458Z,25.88
2022-08-29T09:20:37.195Z,25.56
2022-08-29T09:23:19.981Z,25.67
2022-08-29T09:25:53.635Z,25.37
2022-08-29T09:28:26.324Z,25.21
2022-08-29T09:31:23.730Z,25.22
2022-08-29T09:33:58.487Z,25.28
2022-08-29T09:36:43.485Z,25.07
2022-08-29T09:39:23.711Z,25.33
2022-08-29T09:41:59.160Z,25.14
2022-08-29T09:44:35.361Z,25.06
2022-08-29T09:47:13.156Z,25.07
2022-08-29T09:50:05.930Z,25.07
2022-08-29T09:52:39.655Z,24.97
2022-08-29T09:55:33.548Z,25.12
2022-08-29T09:58:10.288Z,24.86
2022-08-29T10:00:46.031Z,24.77
2022-08-29T10:03:25.490Z,24.55
2022-08-29T10:06:10.979Z,24.37
2022-08-29T10:08:42.517Z,24.13
2022-08-29T10:11:26.548Z,23.97
2022-08-29T10:14:02.058Z,23.91
2022-08-29T10:16:44.783Z,23.62
2022-08-29T10:19:20.452Z,23.29
2022-08-29T10:22:03.943Z,23.17
2022-08-29T10:24:55.233Z,23.21
2022-08-29T10:27:36.122Z,23.20
2022-08-29T10:30:13.823Z,23.16
2022-08-29T10:33:12.471Z,22.93
2022-08-29T10:35:54.708Z,23.04
2022-08-29T10:38:41.096Z,22.98
2022-08-29T10:41:26.321Z,22.94
2022-08-29T10:44:06.128Z,22.89
2022-08-29T10:46:53.145Z,22.90
2022-08-29T10:49:36.971Z,22.79
2022-08-29T10:52:17.630Z,22.79
2022-08-29T10:55:09.281Z,22.94
2022-08-29T10:57:48.302Z,22.83
2022-08-29T11:00:24.574Z,22.80
2022-08-29T11:03:07.495Z,23.02
2022-08-29T11:05:46.107Z,22.89
2022-08-29T11:08:24.609Z,22.86
2022-08-29T11:10:57.159Z,23.17
2022-08-29T11:13:33.340Z,22.90
2022-08-29T11:16:13.209Z,22.68
2022-08-29T11:18:50.180Z,22.99
2022-08-29T11:21:34.811Z,22.94
2022-08-29T11:24:10.866Z,22.82
2022-08-29T11:26:55.179Z,22.69
2022-08-29T11:29:36.217Z,22.92
2022-08-29T11:32:18.445Z,22.84
2022-08-29T11:35:05.772Z,22.87
2022-08-29T11:38:18.292Z,23.02
2022-08-29T11:43:59.976Z,22.78
2022-08-29T11:46:41.004Z,22.73
2022-08-29T11:49:45.724Z,22.60
2022-08-29T11:52:26.437Z,22.36
2022-08-29T11:55:26.066Z,22.45
2022-08-29T11:58:11.023Z,22.60
2022-08-29T12:00:55.163Z,22.73
2022-08-29T12:03:57.333Z,22.56
2022-08-29T12:06:40.575Z,22.58
2022-08-29T12:09:26.738Z,22.41
2022-08-29T12:12:44.001Z,22.72
2022-08-29T12:15:53.381Z,22.54
2022-08-29T12:18:46.796Z,22.37
2022-08-29T12:21:48.811Z,22.58
2022-08-29T12:24:41.078Z,22.45
2022-08-29T12:27:40.594Z,22.45
2022-08-29T12:30:16.630Z,22.45
2022-08-29T12:33:02.547Z,22.52
2022-08-29T12:36:03.592Z,22.54
2022-08-29T12:39:07.891Z,22.37
2022-08-29T12:42:00.124Z,22.48
2022-08-29T12:44:38.779Z,22.54
2022-08-29T12:47:15.680Z,22.39
2022-08-29T12:49:51.843Z,22.38
2022-08-29T12:52:28.204Z,22.59
2022-08-29T12:55:17.963Z,22.62
2022-08-29T12:57:50.935Z,22.24
2022-08-29T13:00:25.812Z,22.37
2022-08-29T13:03:05.019Z,22.33
2022-08-29T13:05:43.775Z,22.26
2022-08-29T13:08:27.152Z,22.50
2022-08-29T13:11:01.045Z,22.46
2022-08-29T13:13:33.496Z,22.31
2022-08-29T13:16:09.887Z,22.25
2022-08-29T13:19:00.113Z,22.07
2022-08-29T13:21:36.828Z,22.02
2022-08-29T13:24:17.290Z,22.04
2022-08-29T13:27:04.783Z,22.06
2022-08-29T13:29:42.105Z,22.36
2022-08-29T13:32:23.994Z,22.03
2022-08-29T13:35:18.181Z,21.99
2022-08-29T13:38:20.047Z,22.08
2022-08-29T13:40:54.239Z,21.74
2022-08-29T13:43:40.747Z,22.08
2022-08-29T13:46:21.831Z,21.92
2022-08-29T13:49:01.639Z,21.94
2022-08-29T13:51:34.016Z,21.96
2022-08-29T13:54:06.247Z,21.39
2022-08-29T13:56:38.811Z,21.56
2022-08-29T13:59:11.793Z,21.26
2022-08-29T14:04:39.369Z,21.11
2022-08-29T14:07:17.396Z,21.00
2022-08-29T14:09:50.700Z,21.24
2022-08-29T14:12:33.062Z,21.31
2022-08-29T14:15:10.330Z,20.95
2022-08-29T14:17:44.318Z,21.19
2022-08-29T14:20:17.739Z,21.19
2022-08-29T14:22:50.487Z,21.04
2022-08-29T14:25:23.477Z,21.30
2022-08-29T14:27:55.642Z,21.08
2022-08-29T14:30:28.414Z,21.43
2022-08-29T14:33:01.777Z,21.53
2022-08-29T14:35:35.022Z,21.49
2022-08-29T14:38:11.193Z,21.65
2022-08-29T14:40:44.178Z,21.71
2022-08-29T14:43:16.781Z,21.62
2022-08-29T14:45:49.027Z,21.73
2022-08-29T14:48:21.539Z,21.83
2022-08-29T14:50:53.808Z,21.80
2022-08-29T14:53:26.268Z,22.01
2022-08-29T14:55:59.041Z,21.83
2022-08-29T14:58:31.325Z,22.04
2022-08-29T15:01:04.495Z,21.98
2022-08-29T15:03:36.680Z,21.98
2022-08-29T15:06:10.564Z,21.72
2022-08-29T15:08:43.792Z,22.05
2022-08-29T15:11:15.999Z,22.11
2022-08-29T15:13:48.159Z,22.02
2022-08-29T15:16:20.409Z,21.98
2022-08-29T15:19:31.596Z,22.15
2022-08-29T15:21:44.835Z,22.02
2022-08-29T15:24:17.027Z,21.99
2022-08-29T15:26:49.208Z,21.97
2022-08-29T15:29:21.423Z,21.94
2022-08-29T15:31:55.488Z,22.16
2022-08-29T15:34:29.284Z,22.15
2022-08-29T15:37:01.939Z,22.12
2022-08-29T15:39:34.539Z,22.14
2022-08-29T15:42:11.186Z,22.05
2022-08-29T15:44:43.472Z,22.14
2022-08-29T15:47:16.168Z,22.40
2022-08-29T15:49:49.377Z,22.46
2022-08-29T15:52:21.658Z,23.01
2022-08-29T15:54:53.908Z,22.85
2022-08-29T15:57:26.708Z,23.02
2022-08-29T15:59:59.206Z,23.38
2022-08-29T16:02:31.559Z,23.54
2022-08-29T16:05:03.875Z,23.65
2022-08-29T16:07:36.056Z,24.00
2022-08-29T16:10:10.361Z,24.34
2022-08-29T16:12:43.326Z,24.37
2022-08-29T16:15:15.644Z,24.51
2022-08-29T16:17:47.824Z,24.68
2022-08-29T16:20:19.979Z,25.00
2022-08-29T16:22:52.581Z,25.01
2022-08-29T16:25:26.407Z,25.22
2022-08-29T16:27:59.191Z,25.43
2022-08-29T16:30:31.509Z,25.71
2022-08-29T16:33:03.826Z,25.61
2022-08-29T16:35:36.176Z,25.81
2022-08-29T16:38:08.416Z,26.21
2022-08-29T16:40:40.781Z,26.35
2022-08-29T16:43:13.345Z,26.58
2022-08-29T16:45:45.734Z,26.73
2022-08-29T16:48:18.197Z,26.59
2022-08-29T16:50:50.784Z,26.63
2022-08-29T16:53:22.973Z,26.95
2022-08-29T16:55:56.130Z,27.02
2022-08-29T16:58:45.827Z,27.11
2022-08-29T17:01:18.153Z,27.40
2022-08-29T17:03:50.383Z,27.52
2022-08-29T17:06:22.656Z,27.59
2022-08-29T17:08:53.590Z,27.80
2022-08-29T17:11:25.039Z,27.81
2022-08-29T17:13:56.780Z,28.21
2022-08-29T17:16:29.114Z,28.36
2022-08-29T17:19:01.772Z,28.31
2022-08-29T17:21:34.680Z,28.32
2022-08-29T17:24:08.132Z,28.45
2022-08-29T17:26:42.671Z,28.70
2022-08-29T17:29:15.476Z,28.56
2022-08-29T17:31:48.065Z,28.73
2022-08-29T17:34:20.504Z,28.66
2022-08-29T17:36:52.703Z,28.94
2022-08-29T17:39:25.066Z,28.95
2022-08-29T17:41:59.427Z,29.17
2022-08-29T17:44:32.031Z,29.40
2022-08-29T17:47:04.249Z,29.67
2022-08-29T17:49:36.603Z,29.61
2022-08-29T17:52:08.836Z,29.80
2022-08-29T17:54:41.031Z,30.09
2022-08-29T17:57:13.285Z,30.12
2022-08-29T17:59:45.626Z,30.43
2022-08-29T18:02:17.835Z,30.23
2022-08-29T18:04:50.091Z,30.41
2022-08-29T18:07:22.443Z,30.70
2022-08-29T18:09:54.720Z,30.54
2022-08-29T18:12:27.200Z,30.51
2022-08-29T18:14:59.397Z,30.83
2022-08-29T18:17:32.306Z,30.99
2022-08-29T18:20:05.047Z,31.19
2022-08-29T18:22:37.742Z,31.14
2022-08-29T18:25:11.723Z,31.41
2022-08-29T18:27:44.056Z,31.50
2022-08-29T18:30:16.804Z,31.60
2022-08-29T18:32:49.174Z,31.76
2022-08-29T18:35:21.736Z,31.96
2022-08-29T18:37:53.995Z,32.59
2022-08-29T18:40:26.672Z,32.48
2022-08-29T18:43:01.227Z,32.58
2022-08-29T18:45:33.666Z,32.48
2022-08-29T18:48:07.349Z,32.77
2022-08-29T18:50:39.663Z,32.88
2022-08-29T18:53:14.267Z,33.03
2022-08-29T18:55:50.367Z,33.31
2022-08-29T18:58:25.122Z,33.63
2022-08-29T19:01:00.385Z,33.52
2022-08-29T19:03:32.706Z,33.59
2022-08-29T19:06:05.065Z,33.47
2022-08-29T19:08:37.323Z,33.85
2022-08-29T19:11:11.451Z,33.96
2022-08-29T19:13:44.130Z,34.14
2022-08-29T19:16:16.582Z,34.19
2022-08-29T19:18:48.939Z,34.19
2022-08-29T19:21:21.113Z,34.45
2022-08-29T19:23:54.729Z,34.50
2022-08-29T19:26:29.640Z,34.70
2022-08-29T19:29:12.614Z,34.79
2022-08-29T19:31:46.417Z,34.80
2022-08-29T19:34:18.587Z,34.77
2022-08-29T19:36:50.764Z,34.98
2022-08-29T19:39:23.888Z,34.98
2022-08-29T19:41:56.074Z,35.19
2022-08-29T19:44:28.775Z,35.13
2022-08-29T19:47:00.980Z,35.22
2022-08-29T19:49:33.151Z,35.38
2022-08-29T19:52:05.693Z,35.42
2022-08-29T19:54:37.957Z,35.48
2022-08-29T19:57:10.179Z,35.65
2022-08-29T19:59:49.028Z,35.64
2022-08-29T20:02:21.326Z,35.63
2022-08-29T20:04:53.693Z,35.77
2022-08-29T20:07:26.177Z,35.68
2022-08-29T20:09:58.320Z,35.69
2022-08-29T20:12:34.335Z,35.86
2022-08-29T20:15:07.448Z,36.02
2022-08-29T20:17:40.222Z,36.20
2022-08-29T20:20:16.076Z,36.25
2022-08-29T20:22:49.388Z,36.36
2022-08-29T20:25:23.017Z,36.61
2022-08-29T20:27:55.509Z,36.79
2022-08-29T20:30:31.394Z,37.08
2022-08-29T20:33:04.745Z,37.18
2022-08-29T20:35:55.338Z,37.16
2022-08-29T20:38:27.824Z,37.47
2022-08-29T20:41:00.704Z,37.65
2022-08-29T20:43:32.953Z,37.60
2022-08-29T20:46:09.201Z,37.71
2022-08-29T20:48:41.445Z,37.94
2022-08-29T20:51:14.543Z,37.89
2022-08-29T20:53:46.782Z,38.06
2022-08-29T20:56:19.035Z,38.32
2022-08-29T20:58:51.235Z,38.43
2022-08-29T21:01:23.526Z,38.48
2022-08-29T21:04:13.397Z,38.60
2022-08-29T21:06:46.335Z,38.83
2022-08-29T21:09:18.930Z,38.91
2022-08-29T21:11:51.103Z,39.02
2022-08-29T21:14:24.276Z,39.16
2022-08-29T21:16:58.046Z,39.22
2022-08-29T21:19:31.108Z,39.37
2022-08-29T21:22:05.118Z,39.37
2022-08-29T21:24:37.720Z,39.44
2022-08-29T21:27:10.666Z,39.64
2022-08-29T21:29:43.741Z,39.75
2022-08-29T21:32:15.914Z,40.01
2022-08-29T21:34:48.083Z,39.88
2022-08-29T21:37:20.284Z,40.16
2022-08-29T21:39:52.788Z,40.46
2022-08-29T21:42:25.474Z,40.53
2022-08-29T21:44:59.079Z,40.42
2022-08-29T21:47:32.059Z,40.36
2022-08-29T21:50:05.184Z,40.48
2022-08-29T21:52:38.220Z,40.40
2022-08-29T21:55:12.108Z,40.60
2022-08-29T21:57:51.851Z,40.57
2022-08-29T22:00:26.188Z,40.65
2022-08-29T22:02:58.703Z,40.57
2022-08-29T22:05:31.768Z,40.55
2022-08-29T22:08:04.541Z,40.63
2022-08-29T22:10:38.887Z,40.61
2022-08-29T22:13:11.223Z,40.55
2022-08-29T22:16:00.878Z,40.67
2022-08-29T22:18:33.112Z,40.61
2022-08-29T22:21:05.979Z,40.57
2022-08-29T22:23:38.157Z,40.75
2022-08-29T22:26:10.471Z,40.79
2022-08-29T22:28:45.268Z,40.88
2022-08-29T22:31:17.971Z,41.00
2022-08-29T22:33:50.381Z,41.06
2022-08-29T22:36:23.325Z,41.22
2022-08-29T22:38:57.777Z,41.36
2022-08-29T22:41:30.049Z,41.45
2022-08-29T22:44:42.346Z,41.74
2022-08-29T22:46:55.949Z,41.71
2022-08-29T22:49:33.078Z,41.94
2022-08-29T22:52:06.367Z,42.00
2022-08-29T22:54:44.076Z,42.27
2022-08-29T22:57:18.304Z,42.47
2022-08-29T22:59:51.535Z,42.34
2022-08-29T23:02:24.434Z,42.47
2022-08-29T23:04:56.673Z,42.35
2022-08-29T23:07:29.232Z,42.34
2022-08-29T23:10:01.846Z,42.45
2022-08-29T23:12:36.254Z,42.38
2022-08-29T23:15:11.800Z,42.41
2022-08-29T23:17:44.943Z,42.72
2022-08-29T23:20:19.094Z,42.67
2022-08-29T23:22:51.645Z,42.68
2022-08-29T23:25:24.081Z,42.92
2022-08-29T23:27:56.263Z,42.84
2022-08-29T23:30:28.874Z,42.78
2022-08-29T23:33:01.647Z,42.87
2022-08-29T23:35:33.845Z,42.76
2022-08-29T23:38:07.643Z,42.85
2022-08-29T23:40:40.339Z,42.71
2022-08-29T23:43:13.075Z,42.89
2022-08-29T23:45:45.754Z,42.90
2022-08-29T23:48:17.924Z,42.92
2022-08-29T23:50:55.190Z,43.08
2022-08-29T23:53:28.195Z,42.81
2022-08-29T23:56:00.513Z,42.93
2022-08-29T23:58:32.703Z,42.92
